Time,TemperatureF,DewpointF,PressureIn,WindDirection,WindDirectionDegrees,WindSpeedMPH,WindSpeedGustMPH,Humidity,HourlyPrecipIn,Conditions,Clouds,dailyrainin,SoftwareType,DateUTC
2013-09-20 00:01:00,35.8,30.2,31.89,South,180,2.0,2.0,80,0.00,,,0.00,meteohub,2013-09-20 06:01:00,
2013-09-20 00:06:00,35.8,30.2,31.89,South,180,2.0,2.0,80,0.00,,,0.00,meteohub,2013-09-20 06:06:00,
2013-09-20 00:11:00,34.9,30.0,31.89,SW,225,1.0,2.0,82,0.00,,,0.00,meteohub,2013-09-20 06:11:00,
2013-09-20 00:17:00,34.5,29.7,31.89,West,270,1.0,2.0,82,0.00,,,0.00,meteohub,2013-09-20 06:17:00,
2013-09-20 00:22:00,34.2,29.5,31.89,West,270,1.0,2.0,83,0.00,,,0.00,meteohub,2013-09-20 06:22:00,
2013-09-20 00:27:00,34.0,29.3,31.89,SW,225,2.0,2.0,83,0.00,,,0.00,meteohub,2013-09-20 06:27:00,
2013-09-20 00:32:00,33.8,29.5,31.89,SW,225,2.0,2.0,84,0.00,,,0.00,meteohub,2013-09-20 06:32:00,
2013-09-20 00:37:00,33.4,29.5,31.89,SW,225,0.0,2.0,85,0.00,,,0.00,meteohub,2013-09-20 06:37:00,
2013-09-20 00:42:00,33.3,29.3,31.89,SW,225,0.0,2.0,85,0.00,,,0.00,meteohub,2013-09-20 06:42:00,
2013-09-20 00:47:00,33.3,29.3,31.89,SW,225,2.0,2.0,85,0.00,,,0.00,meteohub,2013-09-20 06:47:00,
2013-09-20 00:52:00,33.1,29.3,31.89,SW,225,0.0,2.0,86,0.00,,,0.00,meteohub,2013-09-20 06:52:00,
2013-09-20 00:57:00,33.1,29.3,31.88,SW,225,1.0,2.0,86,0.00,,,0.00,meteohub,2013-09-20 06:57:00,
2013-09-20 01:02:00,32.9,29.5,31.89,West,270,1.0,2.0,87,0.00,,,0.00,meteohub,2013-09-20 07:02:00,
2013-09-20 01:07:00,32.7,29.3,31.89,SW,225,1.0,2.0,87,0.00,,,0.00,meteohub,2013-09-20 07:07:00,
2013-09-20 01:12:00,32.7,29.3,31.89,SW,225,1.0,2.0,87,0.00,,,0.00,meteohub,2013-09-20 07:12:00,
2013-09-20 01:17:00,32.7,29.5,31.89,West,270,2.0,2.0,88,0.00,,,0.00,meteohub,2013-09-20 07:17:00,
2013-09-20 01:22:00,32.7,29.5,31.89,West,270,1.0,2.0,88,0.00,,,0.00,meteohub,2013-09-20 07:22:00,
2013-09-20 01:27:00,32.7,29.5,31.89,SW,225,2.0,2.0,88,0.00,,,0.00,meteohub,2013-09-20 07:27:00,
2013-09-20 01:32:00,32.5,29.3,31.89,SW,225,0.0,2.0,88,0.00,,,0.00,meteohub,2013-09-20 07:32:00,
2013-09-20 01:37:00,32.2,28.9,31.89,SW,225,2.0,2.0,88,0.00,,,0.00,meteohub,2013-09-20 07:37:00,
2013-09-20 01:42:00,32.2,28.9,31.88,SW,225,1.0,2.0,88,0.00,,,0.00,meteohub,2013-09-20 07:42:00,
2013-09-20 01:47:00,32.0,28.9,31.89,SW,225,0.0,2.0,88,0.00,,,0.00,meteohub,2013-09-20 07:47:00,
2013-09-20 01:52:00,31.8,29.3,31.89,SW,225,2.0,2.0,90,0.00,,,0.00,meteohub,2013-09-20 07:52:00,
2013-09-20 01:57:00,31.6,29.1,31.89,SW,225,1.0,2.0,90,0.00,,,0.00,meteohub,2013-09-20 07:57:00,
2013-09-20 02:02:00,31.6,29.1,31.89,SW,225,2.0,2.0,90,0.00,,,0.00,meteohub,2013-09-20 08:02:00,
2013-09-20 02:07:00,31.6,29.1,31.89,SW,225,2.0,2.0,90,0.00,,,0.00,meteohub,2013-09-20 08:07:00,
2013-09-20 02:12:00,31.3,28.8,31.89,West,270,2.0,2.0,90,0.00,,,0.00,meteohub,2013-09-20 08:12:00,
2013-09-20 02:17:00,31.3,28.8,31.89,SW,225,2.0,2.0,90,0.00,,,0.00,meteohub,2013-09-20 08:17:00,
2013-09-20 02:22:00,31.5,29.1,31.89,West,270,0.0,2.0,91,0.00,,,0.00,meteohub,2013-09-20 08:22:00,
2013-09-20 02:27:00,31.3,28.9,31.89,SW,225,0.0,2.0,91,0.00,,,0.00,meteohub,2013-09-20 08:27:00,
2013-09-20 02:32:00,31.1,28.8,31.89,SW,225,0.0,2.0,91,0.00,,,0.00,meteohub,2013-09-20 08:32:00,
2013-09-20 02:37:00,30.9,28.6,31.88,SW,225,0.0,2.0,91,0.00,,,0.00,meteohub,2013-09-20 08:37:00,
2013-09-20 02:42:00,30.7,28.4,31.88,SW,225,0.0,1.0,91,0.00,,,0.00,meteohub,2013-09-20 08:42:00,
2013-09-20 02:47:00,30.7,28.4,31.88,SW,225,0.0,0.0,91,0.00,,,0.00,meteohub,2013-09-20 08:47:00,
2013-09-20 02:52:00,30.7,28.4,31.89,SW,225,1.0,0.0,91,0.00,,,0.00,meteohub,2013-09-20 08:52:00,
2013-09-20 02:57:00,30.7,28.4,31.89,SW,225,0.0,1.0,91,0.00,,,0.00,meteohub,2013-09-20 08:57:00,
2013-09-20 03:02:00,30.7,28.4,31.89,SW,225,1.0,1.0,91,0.00,,,0.00,meteohub,2013-09-20 09:02:00,
2013-09-20 03:07:00,30.7,28.4,31.88,SW,225,2.0,2.0,91,0.00,,,0.00,meteohub,2013-09-20 09:07:00,
2013-09-20 03:12:00,30.6,28.2,31.88,South,180,1.0,2.0,91,0.00,,,0.00,meteohub,2013-09-20 09:12:00,
2013-09-20 03:17:00,30.6,28.2,31.89,South,180,1.0,2.0,91,0.00,,,0.00,meteohub,2013-09-20 09:17:00,
2013-09-20 03:22:00,30.6,28.6,31.88,West,270,1.0,2.0,92,0.00,,,0.00,meteohub,2013-09-20 09:22:00,
2013-09-20 03:27:00,30.7,28.8,31.89,SW,225,1.0,2.0,92,0.00,,,0.00,meteohub,2013-09-20 09:27:00,
2013-09-20 03:32:00,30.7,28.8,31.89,West,270,2.0,2.0,92,0.00,,,0.00,meteohub,2013-09-20 09:32:00,
2013-09-20 03:37:00,30.7,28.8,31.89,SW,225,2.0,2.0,92,0.00,,,0.00,meteohub,2013-09-20 09:37:00,
2013-09-20 03:42:00,30.6,28.6,31.89,SW,225,1.0,2.0,92,0.00,,,0.00,meteohub,2013-09-20 09:42:00,
2013-09-20 03:47:00,30.6,28.6,31.89,West,270,2.0,2.0,92,0.00,,,0.00,meteohub,2013-09-20 09:47:00,
2013-09-20 03:52:00,30.6,28.6,31.89,SW,225,2.0,2.0,92,0.00,,,0.00,meteohub,2013-09-20 09:52:00,
2013-09-20 03:57:00,30.7,28.8,31.89,SW,225,1.0,2.0,92,0.00,,,0.00,meteohub,2013-09-20 09:57:00,
2013-09-20 04:02:00,30.9,28.9,31.89,SW,225,1.0,2.0,92,0.00,,,0.00,meteohub,2013-09-20 10:02:00,
2013-09-20 04:07:00,30.9,28.9,31.89,SW,225,1.0,2.0,92,0.00,,,0.00,meteohub,2013-09-20 10:07:00,
2013-09-20 04:12:00,31.3,29.5,31.89,West,270,1.0,1.0,93,0.00,,,0.00,meteohub,2013-09-20 10:12:00,
2013-09-20 04:17:00,31.6,30.2,31.89,SW,225,2.0,2.0,94,0.00,,,0.00,meteohub,2013-09-20 10:17:00,
2013-09-20 04:22:00,32.0,30.2,31.89,East,90,0.0,2.0,93,0.00,,,0.00,meteohub,2013-09-20 10:22:00,
2013-09-20 04:27:00,32.2,30.4,31.89,South,180,0.0,2.0,93,0.00,,,0.00,meteohub,2013-09-20 10:27:00,
2013-09-20 04:33:00,32.4,30.6,31.89,South,180,0.0,2.0,93,0.00,,,0.00,meteohub,2013-09-20 10:33:00,
2013-09-20 04:38:00,32.5,30.7,31.89,South,180,0.0,2.0,93,0.00,,,0.00,meteohub,2013-09-20 10:38:00,
2013-09-20 04:43:00,32.7,30.9,31.89,South,180,0.0,1.0,93,0.00,,,0.00,meteohub,2013-09-20 10:43:00,
2013-09-20 04:48:00,33.1,31.3,31.89,South,180,0.0,1.0,93,0.00,,,0.00,meteohub,2013-09-20 10:48:00,
2013-09-20 04:53:00,33.3,31.5,31.89,NW,315,1.0,0.0,93,0.00,,,0.00,meteohub,2013-09-20 10:53:00,
2013-09-20 04:58:00,33.4,31.6,31.89,SW,225,0.0,1.0,93,0.00,,,0.00,meteohub,2013-09-20 10:58:00,
2013-09-20 05:04:00,33.6,31.8,31.89,SW,225,1.0,1.0,93,0.00,,,0.00,meteohub,2013-09-20 11:04:00,
2013-09-20 05:09:00,33.6,31.8,31.89,East,90,1.0,2.0,93,0.00,,,0.00,meteohub,2013-09-20 11:09:00,
2013-09-20 05:14:00,33.8,31.6,31.89,East,90,1.0,2.0,92,0.00,,,0.00,meteohub,2013-09-20 11:14:00,
2013-09-20 05:19:00,33.8,31.6,31.90,East,90,0.0,2.0,92,0.00,,,0.00,meteohub,2013-09-20 11:19:00,
2013-09-20 05:24:00,33.8,31.6,31.89,East,90,0.0,2.0,92,0.00,,,0.00,meteohub,2013-09-20 11:24:00,
2013-09-20 05:30:00,33.8,31.6,31.89,SW,225,2.0,2.0,92,0.00,,,0.00,meteohub,2013-09-20 11:30:00,
2013-09-20 05:35:00,33.4,31.3,31.89,SW,225,0.0,2.0,92,0.00,,,0.00,meteohub,2013-09-20 11:35:00,
2013-09-20 05:41:00,33.1,30.7,31.89,SW,225,1.0,2.0,91,0.00,,,0.00,meteohub,2013-09-20 11:41:00,
2013-09-20 05:46:00,32.7,30.4,31.89,SE,135,0.0,2.0,91,0.00,,,0.00,meteohub,2013-09-20 11:46:00,
2013-09-20 05:51:00,32.5,30.0,31.89,SW,225,2.0,2.0,90,0.00,,,0.00,meteohub,2013-09-20 11:51:00,
2013-09-20 05:56:00,32.4,30.0,31.89,SW,225,1.0,2.0,91,0.00,,,0.00,meteohub,2013-09-20 11:56:00,
2013-09-20 06:01:00,32.4,30.0,31.89,SW,225,1.0,2.0,91,0.00,,,0.00,meteohub,2013-09-20 12:01:00,
2013-09-20 06:06:00,32.4,30.0,31.89,SW,225,1.0,2.0,91,0.00,,,0.00,meteohub,2013-09-20 12:06:00,
2013-09-20 06:12:00,32.9,30.9,31.89,SW,225,0.0,1.0,92,0.00,,,0.00,meteohub,2013-09-20 12:12:00,
2013-09-20 06:17:00,33.3,31.5,31.90,SW,225,0.0,1.0,93,0.00,,,0.00,meteohub,2013-09-20 12:17:00,
2013-09-20 06:22:00,33.6,31.8,31.90,SW,225,0.0,1.0,93,0.00,,,0.00,meteohub,2013-09-20 12:22:00,
2013-09-20 06:27:00,33.8,31.6,31.90,SW,225,1.0,2.0,92,0.00,,,0.00,meteohub,2013-09-20 12:27:00,
2013-09-20 06:32:00,34.2,32.0,31.90,NW,315,0.0,2.0,92,0.00,,,0.00,meteohub,2013-09-20 12:32:00,
2013-09-20 06:37:00,34.5,32.7,31.90,SW,225,1.0,2.0,93,0.00,,,0.00,meteohub,2013-09-20 12:37:00,
2013-09-20 06:42:00,34.7,32.9,31.90,SW,225,0.0,2.0,93,0.00,,,0.00,meteohub,2013-09-20 12:42:00,
2013-09-20 06:47:00,34.9,33.1,31.90,SW,225,0.0,2.0,93,0.00,,,0.00,meteohub,2013-09-20 12:47:00,
2013-09-20 06:52:00,35.1,33.3,31.90,SW,225,0.0,2.0,93,0.00,,,0.00,meteohub,2013-09-20 12:52:00,
2013-09-20 06:57:00,35.2,33.4,31.90,SW,225,1.0,2.0,93,0.00,,,0.00,meteohub,2013-09-20 12:57:00,
2013-09-20 07:02:00,35.2,33.4,31.90,NW,315,0.0,1.0,93,0.00,,,0.00,meteohub,2013-09-20 13:02:00,
2013-09-20 07:07:00,35.4,33.6,31.90,NW,315,0.0,1.0,93,0.00,,,0.00,meteohub,2013-09-20 13:07:00,
2013-09-20 07:12:00,35.6,33.4,31.90,West,270,2.0,2.0,92,0.00,,,0.00,meteohub,2013-09-20 13:12:00,
2013-09-20 07:17:00,35.8,33.6,31.90,West,270,1.0,2.0,92,0.00,,,0.00,meteohub,2013-09-20 13:17:00,
2013-09-20 07:22:00,36.0,33.6,31.90,West,270,0.0,2.0,91,0.00,,,0.00,meteohub,2013-09-20 13:22:00,
2013-09-20 07:27:00,36.1,33.8,31.90,West,270,0.0,2.0,91,0.00,,,0.00,meteohub,2013-09-20 13:27:00,
2013-09-20 07:32:00,36.3,34.0,31.90,West,270,0.0,1.0,91,0.00,,,0.00,meteohub,2013-09-20 13:32:00,
2013-09-20 07:37:00,36.7,34.3,31.90,East,90,1.0,1.0,91,0.00,,,0.00,meteohub,2013-09-20 13:37:00,
2013-09-20 07:42:00,36.9,34.2,31.90,NE,45,1.0,2.0,90,0.00,,,0.00,meteohub,2013-09-20 13:42:00,
2013-09-20 07:47:00,37.0,34.3,31.90,North,0,1.0,2.0,90,0.00,,,0.00,meteohub,2013-09-20 13:47:00,
2013-09-20 07:52:00,37.2,34.3,31.90,North,0,0.0,2.0,89,0.00,,,0.00,meteohub,2013-09-20 13:52:00,
2013-09-20 07:57:00,37.4,35.6,31.90,North,0,1.0,2.0,93,0.00,,,0.00,meteohub,2013-09-20 13:57:00,
2013-09-20 08:02:00,37.4,35.2,31.90,North,0,0.0,2.0,92,0.00,,,0.00,meteohub,2013-09-20 14:02:00,
2013-09-20 08:07:00,37.4,35.2,31.90,North,0,0.0,2.0,92,0.00,,,0.00,meteohub,2013-09-20 14:07:00,
2013-09-20 08:12:00,37.4,35.1,31.90,North,0,2.0,2.0,91,0.00,,,0.00,meteohub,2013-09-20 14:12:00,
2013-09-20 08:17:00,37.6,34.9,31.90,NE,45,0.0,2.0,90,0.00,,,0.00,meteohub,2013-09-20 14:17:00,
2013-09-20 08:22:00,37.6,34.9,31.90,North,0,2.0,2.0,90,0.00,,,0.00,meteohub,2013-09-20 14:22:00,
2013-09-20 08:27:00,37.8,35.1,31.90,North,0,2.0,2.0,90,0.00,,,0.00,meteohub,2013-09-20 14:27:00,
2013-09-20 08:32:00,38.1,35.4,31.90,North,0,3.0,4.0,90,0.00,,,0.00,meteohub,2013-09-20 14:32:00,
2013-09-20 08:37:00,38.5,35.6,31.90,North,0,2.0,4.0,89,0.00,,,0.00,meteohub,2013-09-20 14:37:00,
2013-09-20 08:42:00,38.8,36.0,31.90,North,0,3.0,4.0,89,0.00,,,0.00,meteohub,2013-09-20 14:42:00,
2013-09-20 08:47:00,40.1,36.9,31.90,North,0,3.0,4.0,88,0.00,,,0.00,meteohub,2013-09-20 14:47:00,
2013-09-20 08:52:00,41.5,37.6,31.90,North,0,2.0,4.0,86,0.00,,,0.00,meteohub,2013-09-20 14:52:00,
2013-09-20 08:57:00,42.8,37.9,31.90,NW,315,3.0,4.0,83,0.00,,,0.00,meteohub,2013-09-20 14:57:00,
2013-09-20 09:02:00,43.5,38.5,31.90,West,270,2.0,4.0,82,0.00,,,0.00,meteohub,2013-09-20 15:02:00,
2013-09-20 09:07:00,44.1,37.9,31.90,WNW,293,3.0,5.0,79,0.00,,,0.00,meteohub,2013-09-20 15:07:00,
2013-09-20 09:12:00,44.8,37.4,31.90,SW,225,2.0,5.0,75,0.00,,,0.00,meteohub,2013-09-20 15:12:00,
2013-09-20 09:17:00,45.3,37.6,31.90,North,0,2.0,5.0,74,0.00,,,0.00,meteohub,2013-09-20 15:17:00,
2013-09-20 09:22:00,45.5,37.8,31.90,East,90,3.0,4.0,74,0.00,,,0.00,meteohub,2013-09-20 15:22:00,
2013-09-20 09:27:00,46.0,37.9,31.90,NW,315,3.0,4.0,73,0.00,,,0.00,meteohub,2013-09-20 15:27:00,
2013-09-20 09:32:00,46.4,37.6,31.90,NE,45,3.0,4.0,71,0.00,,,0.00,meteohub,2013-09-20 15:32:00,
2013-09-20 09:37:00,46.8,37.9,31.90,NE,45,2.0,4.0,71,0.00,,,0.00,meteohub,2013-09-20 15:37:00,
2013-09-20 09:42:00,47.5,38.1,31.90,NW,315,3.0,4.0,70,0.00,,,0.00,meteohub,2013-09-20 15:42:00,
2013-09-20 09:47:00,47.8,38.1,31.90,SW,225,4.0,4.0,69,0.00,,,0.00,meteohub,2013-09-20 15:47:00,
2013-09-20 09:52:00,48.6,37.8,31.90,NE,45,2.0,4.0,66,0.00,,,0.00,meteohub,2013-09-20 15:52:00,
2013-09-20 09:57:00,48.9,38.1,31.90,SW,225,4.0,4.0,66,0.00,,,0.00,meteohub,2013-09-20 15:57:00,
2013-09-20 10:02:00,49.3,37.9,31.90,SE,135,4.0,4.0,65,0.00,,,0.00,meteohub,2013-09-20 16:02:00,
2013-09-20 10:07:00,49.3,37.9,31.90,SE,135,4.0,4.0,65,0.00,,,0.00,meteohub,2013-09-20 16:07:00,
2013-09-20 10:12:00,50.0,37.9,31.90,NW,315,2.0,5.0,63,0.00,,,0.00,meteohub,2013-09-20 16:12:00,
2013-09-20 10:17:00,50.7,39.0,31.89,North,0,4.0,5.0,64,0.00,,,0.00,meteohub,2013-09-20 16:17:00,
2013-09-20 10:22:00,51.1,38.1,31.89,North,0,2.0,5.0,61,0.00,,,0.00,meteohub,2013-09-20 16:22:00,
2013-09-20 10:27:00,51.4,38.5,31.89,NE,45,4.0,5.0,61,0.00,,,0.00,meteohub,2013-09-20 16:27:00,
2013-09-20 10:32:00,51.8,37.9,31.89,East,90,3.0,5.0,59,0.00,,,0.00,meteohub,2013-09-20 16:32:00,
2013-09-20 10:37:00,52.5,37.2,31.89,North,0,4.0,4.0,56,0.00,,,0.00,meteohub,2013-09-20 16:37:00,
2013-09-20 10:42:00,53.1,36.0,31.89,NE,45,4.0,4.0,52,0.00,,,0.00,meteohub,2013-09-20 16:42:00,
2013-09-20 10:47:00,53.2,35.6,31.89,SW,225,2.0,4.0,51,0.00,,,0.00,meteohub,2013-09-20 16:47:00,
2013-09-20 10:52:00,54.0,36.3,31.89,East,90,3.0,4.0,51,0.00,,,0.00,meteohub,2013-09-20 16:52:00,
2013-09-20 10:57:00,54.9,36.1,31.89,East,90,2.0,4.0,49,0.00,,,0.00,meteohub,2013-09-20 16:57:00,
2013-09-20 11:02:00,55.9,36.0,31.89,East,90,2.0,4.0,47,0.00,,,0.00,meteohub,2013-09-20 17:02:00,
2013-09-20 11:07:00,56.3,34.2,31.89,NW,315,2.0,4.0,43,0.00,,,0.00,meteohub,2013-09-20 17:07:00,
2013-09-20 11:12:00,56.7,33.8,31.89,NE,45,4.0,5.0,42,0.00,,,0.00,meteohub,2013-09-20 17:12:00,
2013-09-20 11:17:00,56.7,30.7,31.88,NE,45,2.0,5.0,37,0.00,,,0.00,meteohub,2013-09-20 17:17:00,
2013-09-20 11:22:00,57.4,32.0,31.88,NE,45,2.0,4.0,38,0.00,,,0.00,meteohub,2013-09-20 17:22:00,
2013-09-20 11:27:00,58.1,30.6,31.88,ENE,68,4.0,4.0,35,0.00,,,0.00,meteohub,2013-09-20 17:27:00,
2013-09-20 11:32:00,58.3,30.0,31.88,NW,315,2.0,5.0,34,0.00,,,0.00,meteohub,2013-09-20 17:32:00,
2013-09-20 11:37:00,59.4,29.5,31.88,North,0,2.0,5.0,32,0.00,,,0.00,meteohub,2013-09-20 17:37:00,
2013-09-20 11:42:00,59.9,30.7,31.88,East,90,3.0,5.0,33,0.00,,,0.00,meteohub,2013-09-20 17:42:00,
2013-09-20 11:47:00,60.1,29.3,31.88,NW,315,4.0,6.0,31,0.00,,,0.00,meteohub,2013-09-20 17:47:00,
2013-09-20 11:52:00,60.8,29.1,31.88,West,270,4.0,6.0,30,0.00,,,0.00,meteohub,2013-09-20 17:52:00,
2013-09-20 11:57:00,61.0,25.0,31.88,NE,45,4.0,6.0,25,0.00,,,0.00,meteohub,2013-09-20 17:57:00,
2013-09-20 12:02:00,60.4,22.5,31.87,SE,135,2.0,6.0,23,0.00,,,0.00,meteohub,2013-09-20 18:02:00,
2013-09-20 12:07:00,60.4,22.5,31.87,SE,135,2.0,6.0,23,0.00,,,0.00,meteohub,2013-09-20 18:07:00,
2013-09-20 12:12:00,61.0,20.8,31.87,NE,45,5.0,7.0,21,0.00,,,0.00,meteohub,2013-09-20 18:12:00,
2013-09-20 12:17:00,61.0,20.8,31.87,SE,135,4.0,8.0,21,0.00,,,0.00,meteohub,2013-09-20 18:17:00,
2013-09-20 12:22:00,61.0,21.9,31.87,NE,45,4.0,8.0,22,0.00,,,0.00,meteohub,2013-09-20 18:22:00,
2013-09-20 12:27:00,61.9,23.7,31.87,SE,135,2.0,8.0,23,0.00,,,0.00,meteohub,2013-09-20 18:27:00,
2013-09-20 12:32:00,62.8,22.3,31.87,SSE,158,3.0,6.0,21,0.00,,,0.00,meteohub,2013-09-20 18:32:00,
2013-09-20 12:37:00,63.0,21.2,31.86,East,90,4.0,6.0,20,0.00,,,0.00,meteohub,2013-09-20 18:37:00,
2013-09-20 12:42:00,63.9,23.2,31.87,SW,225,2.0,6.0,21,0.00,,,0.00,meteohub,2013-09-20 18:42:00,
2013-09-20 12:47:00,64.9,24.1,31.87,East,90,3.0,6.0,21,0.00,,,0.00,meteohub,2013-09-20 18:47:00,
2013-09-20 12:52:00,65.5,23.4,31.86,East,90,3.0,6.0,20,0.00,,,0.00,meteohub,2013-09-20 18:52:00,
2013-09-20 12:57:00,65.1,23.0,31.86,NE,45,7.0,7.0,20,0.00,,,0.00,meteohub,2013-09-20 18:57:00,
2013-09-20 13:02:00,64.4,22.5,31.86,NE,45,4.0,7.0,20,0.00,,,0.00,meteohub,2013-09-20 19:02:00,
2013-09-20 13:07:00,64.2,22.3,31.86,North,0,3.0,7.0,20,0.00,,,0.00,meteohub,2013-09-20 19:07:00,
2013-09-20 13:12:00,64.8,22.8,31.86,SE,135,4.0,7.0,20,0.00,,,0.00,meteohub,2013-09-20 19:12:00,
2013-09-20 13:17:00,64.8,21.6,31.86,NE,45,5.0,6.0,19,0.00,,,0.00,meteohub,2013-09-20 19:17:00,
2013-09-20 13:22:00,65.5,20.8,31.86,NE,45,6.0,6.0,18,0.00,,,0.00,meteohub,2013-09-20 19:22:00,
2013-09-20 13:27:00,65.3,20.7,31.86,NE,45,8.0,8.0,18,0.00,,,0.00,meteohub,2013-09-20 19:27:00,
2013-09-20 13:32:00,65.3,20.7,31.86,SW,225,1.0,8.0,18,0.00,,,0.00,meteohub,2013-09-20 19:32:00,
2013-09-20 13:37:00,66.0,21.2,31.86,SE,135,4.0,8.0,18,0.00,,,0.00,meteohub,2013-09-20 19:37:00,
2013-09-20 13:42:00,66.4,20.3,31.85,NE,45,8.0,8.0,17,0.00,,,0.00,meteohub,2013-09-20 19:42:00,
2013-09-20 13:47:00,66.9,19.2,31.85,NE,45,4.0,8.0,16,0.00,,,0.00,meteohub,2013-09-20 19:47:00,
2013-09-20 13:52:00,67.1,19.4,31.85,SE,135,5.0,8.0,16,0.00,,,0.00,meteohub,2013-09-20 19:52:00,
2013-09-20 13:57:00,67.5,19.8,31.85,NE,45,4.0,8.0,16,0.00,,,0.00,meteohub,2013-09-20 19:57:00,
2013-09-20 14:02:00,67.3,19.6,31.85,NE,45,6.0,8.0,16,0.00,,,0.00,meteohub,2013-09-20 20:02:00,
2013-09-20 14:07:00,67.3,19.6,31.84,NE,45,6.0,6.0,16,0.00,,,0.00,meteohub,2013-09-20 20:07:00,
2013-09-20 14:12:00,66.7,19.0,31.84,NE,45,5.0,6.0,16,0.00,,,0.00,meteohub,2013-09-20 20:12:00,
2013-09-20 14:17:00,66.2,18.7,31.84,SSE,158,4.0,7.0,16,0.00,,,0.00,meteohub,2013-09-20 20:17:00,
2013-09-20 14:22:00,66.2,18.7,31.84,East,90,7.0,7.0,16,0.00,,,0.00,meteohub,2013-09-20 20:22:00,
2013-09-20 14:27:00,66.7,19.0,31.84,North,0,5.0,7.0,16,0.00,,,0.00,meteohub,2013-09-20 20:27:00,
2013-09-20 14:32:00,66.6,19.0,31.84,NE,45,5.0,7.0,16,0.00,,,0.00,meteohub,2013-09-20 20:32:00,
2013-09-20 14:37:00,67.5,19.8,31.84,NNE,23,5.0,7.0,16,0.00,,,0.00,meteohub,2013-09-20 20:37:00,
2013-09-20 14:42:00,68.2,18.7,31.84,NE,45,4.0,7.0,15,0.00,,,0.00,meteohub,2013-09-20 20:42:00,
2013-09-20 14:47:00,68.4,18.9,31.83,NE,45,5.0,6.0,15,0.00,,,0.00,meteohub,2013-09-20 20:47:00,
2013-09-20 14:52:00,68.4,18.9,31.83,NE,45,5.0,8.0,15,0.00,,,0.00,meteohub,2013-09-20 20:52:00,
2013-09-20 14:57:00,68.7,19.2,31.83,North,0,5.0,8.0,15,0.00,,,0.00,meteohub,2013-09-20 20:57:00,
2013-09-20 15:03:00,68.7,19.2,31.83,East,90,9.0,9.0,15,0.00,,,0.00,meteohub,2013-09-20 21:03:00,
2013-09-20 15:08:00,68.5,19.0,31.84,NE,45,6.0,9.0,15,0.00,,,0.00,meteohub,2013-09-20 21:08:00,
2013-09-20 15:13:00,68.2,18.7,31.84,North,0,5.0,9.0,15,0.00,,,0.00,meteohub,2013-09-20 21:13:00,
2013-09-20 15:18:00,68.2,18.7,31.84,East,90,2.0,9.0,15,0.00,,,0.00,meteohub,2013-09-20 21:18:00,
2013-09-20 15:23:00,68.7,19.2,31.84,NE,45,4.0,11.0,15,0.00,,,0.00,meteohub,2013-09-20 21:23:00,
2013-09-20 15:28:00,69.1,21.0,31.83,East,90,5.0,11.0,16,0.00,,,0.00,meteohub,2013-09-20 21:28:00,
2013-09-20 15:34:00,69.4,19.8,31.83,NW,315,6.0,11.0,15,0.00,,,0.00,meteohub,2013-09-20 21:34:00,
2013-09-20 15:39:00,69.3,19.6,31.83,NE,45,8.0,8.0,15,0.00,,,0.00,meteohub,2013-09-20 21:39:00,
2013-09-20 15:44:00,69.1,19.4,31.83,NNW,338,8.0,10.0,15,0.00,,,0.00,meteohub,2013-09-20 21:44:00,
2013-09-20 15:49:00,69.1,21.0,31.83,East,90,2.0,10.0,16,0.00,,,0.00,meteohub,2013-09-20 21:49:00,
2013-09-20 15:54:00,69.1,19.4,31.83,NE,45,5.0,10.0,15,0.00,,,0.00,meteohub,2013-09-20 21:54:00,
2013-09-20 16:00:00,68.9,19.4,31.83,NE,45,6.0,8.0,15,0.00,,,0.00,meteohub,2013-09-20 22:00:00,
2013-09-20 16:05:00,68.9,19.4,31.83,NE,45,6.0,8.0,15,0.00,,,0.00,meteohub,2013-09-20 22:05:00,
2013-09-20 16:10:00,69.1,21.0,31.83,NE,45,5.0,7.0,16,0.00,,,0.00,meteohub,2013-09-20 22:10:00,
2013-09-20 16:15:00,68.7,20.7,31.83,NE,45,4.0,8.0,16,0.00,,,0.00,meteohub,2013-09-20 22:15:00,
2013-09-20 16:20:00,68.9,20.8,31.83,West,270,4.0,8.0,16,0.00,,,0.00,meteohub,2013-09-20 22:20:00,
2013-09-20 16:25:00,68.9,20.8,31.83,NE,45,8.0,8.0,16,0.00,,,0.00,meteohub,2013-09-20 22:25:00,
2013-09-20 16:31:00,68.7,19.2,31.83,NE,45,3.0,8.0,15,0.00,,,0.00,meteohub,2013-09-20 22:31:00,
2013-09-20 16:36:00,68.5,19.0,31.83,North,0,6.0,8.0,15,0.00,,,0.00,meteohub,2013-09-20 22:36:00,
2013-09-20 16:41:00,68.5,19.0,31.82,NE,45,4.0,8.0,15,0.00,,,0.00,meteohub,2013-09-20 22:41:00,
2013-09-20 16:46:00,68.4,18.9,31.83,NE,45,4.0,6.0,15,0.00,,,0.00,meteohub,2013-09-20 22:46:00,
2013-09-20 16:51:00,68.2,20.3,31.83,North,0,8.0,8.0,16,0.00,,,0.00,meteohub,2013-09-20 22:51:00,
2013-09-20 16:56:00,68.0,20.1,31.82,East,90,4.0,8.0,16,0.00,,,0.00,meteohub,2013-09-20 22:56:00,
2013-09-20 17:02:00,67.8,21.4,31.83,NW,315,2.0,8.0,17,0.00,,,0.00,meteohub,2013-09-20 23:02:00,
2013-09-20 17:07:00,67.6,21.2,31.82,East,90,4.0,8.0,17,0.00,,,0.00,meteohub,2013-09-20 23:07:00,
2013-09-20 17:12:00,67.5,21.2,31.82,NW,315,4.0,8.0,17,0.00,,,0.00,meteohub,2013-09-20 23:12:00,
2013-09-20 17:17:00,67.3,21.0,31.83,East,90,5.0,6.0,17,0.00,,,0.00,meteohub,2013-09-20 23:17:00,
2013-09-20 17:22:00,66.7,20.5,31.82,SE,135,4.0,7.0,17,0.00,,,0.00,meteohub,2013-09-20 23:22:00,
2013-09-20 17:28:00,65.7,21.0,31.82,NW,315,2.0,7.0,18,0.00,,,0.00,meteohub,2013-09-20 23:28:00,
2013-09-20 17:33:00,64.9,20.5,31.82,North,0,3.0,7.0,18,0.00,,,0.00,meteohub,2013-09-20 23:33:00,
2013-09-20 17:38:00,64.8,21.6,31.82,NW,315,4.0,7.0,19,0.00,,,0.00,meteohub,2013-09-20 23:38:00,
2013-09-20 17:43:00,64.0,22.1,31.82,NE,45,3.0,6.0,20,0.00,,,0.00,meteohub,2013-09-20 23:43:00,
2013-09-20 17:48:00,63.3,22.6,31.82,SE,135,5.0,6.0,21,0.00,,,0.00,meteohub,2013-09-20 23:48:00,
2013-09-20 17:53:00,62.8,22.3,31.82,East,90,2.0,6.0,21,0.00,,,0.00,meteohub,2013-09-20 23:53:00,
2013-09-20 17:59:00,62.4,23.0,31.82,North,0,4.0,6.0,22,0.00,,,0.00,meteohub,2013-09-20 23:59:00,
2013-09-20 18:04:00,62.2,23.0,31.83,NE,45,3.0,5.0,22,0.00,,,0.00,meteohub,2013-09-21 00:04:00,
2013-09-20 18:09:00,61.5,22.3,31.82,East,90,2.0,4.0,22,0.00,,,0.00,meteohub,2013-09-21 00:09:00,
2013-09-20 18:14:00,61.3,22.1,31.82,WNW,293,3.0,4.0,22,0.00,,,0.00,meteohub,2013-09-21 00:14:00,
2013-09-20 18:19:00,61.0,21.9,31.82,West,270,2.0,3.0,22,0.00,,,0.00,meteohub,2013-09-21 00:19:00,
2013-09-20 18:24:00,60.3,22.3,31.83,West,270,3.0,5.0,23,0.00,,,0.00,meteohub,2013-09-21 00:24:00,
2013-09-20 18:30:00,59.9,21.9,31.83,NW,315,2.0,5.0,23,0.00,,,0.00,meteohub,2013-09-21 00:30:00,
2013-09-20 18:35:00,59.0,22.3,31.83,West,270,2.0,3.0,24,0.00,,,0.00,meteohub,2013-09-21 00:35:00,
2013-09-20 18:40:00,58.1,23.4,31.83,South,180,2.0,3.0,26,0.00,,,0.00,meteohub,2013-09-21 00:40:00,
2013-09-20 18:45:00,57.2,24.4,31.83,South,180,0.0,2.0,28,0.00,,,0.00,meteohub,2013-09-21 00:45:00,
2013-09-20 18:50:00,56.1,24.3,31.83,South,180,0.0,2.0,29,0.00,,,0.00,meteohub,2013-09-21 00:50:00,
2013-09-20 18:56:00,55.4,24.4,31.83,NE,45,1.0,2.0,30,0.00,,,0.00,meteohub,2013-09-21 00:56:00,
2013-09-20 19:01:00,54.5,24.4,31.83,NE,45,0.0,2.0,31,0.00,,,0.00,meteohub,2013-09-21 01:01:00,
2013-09-20 19:06:00,53.8,24.6,31.83,West,270,1.0,2.0,32,0.00,,,0.00,meteohub,2013-09-21 01:06:00,
2013-09-20 19:11:00,52.9,25.9,31.83,NW,315,3.0,3.0,35,0.00,,,0.00,meteohub,2013-09-21 01:11:00,
2013-09-20 19:16:00,52.2,25.3,31.84,SW,225,2.0,3.0,35,0.00,,,0.00,meteohub,2013-09-21 01:16:00,
2013-09-20 19:21:00,51.8,26.4,31.84,West,270,2.0,4.0,37,0.00,,,0.00,meteohub,2013-09-21 01:21:00,
2013-09-20 19:27:00,51.1,26.4,31.84,South,180,2.0,4.0,38,0.00,,,0.00,meteohub,2013-09-21 01:27:00,
2013-09-20 19:32:00,50.5,25.9,31.84,North,0,0.0,3.0,38,0.00,,,0.00,meteohub,2013-09-21 01:32:00,
2013-09-20 19:37:00,50.2,24.3,31.84,SE,135,2.0,2.0,36,0.00,,,0.00,meteohub,2013-09-21 01:37:00,
2013-09-20 19:42:00,50.0,24.8,31.84,NE,45,2.0,2.0,37,0.00,,,0.00,meteohub,2013-09-21 01:42:00,
2013-09-20 19:47:00,49.8,25.9,31.84,East,90,1.0,2.0,39,0.00,,,0.00,meteohub,2013-09-21 01:47:00,
2013-09-20 19:52:00,49.5,25.0,31.84,SW,225,2.0,2.0,38,0.00,,,0.00,meteohub,2013-09-21 01:52:00,
2013-09-20 19:57:00,49.1,24.6,31.85,SW,225,0.0,2.0,38,0.00,,,0.00,meteohub,2013-09-21 01:57:00,
2013-09-20 20:02:00,48.9,24.4,31.85,SW,225,0.0,2.0,38,0.00,,,0.00,meteohub,2013-09-21 02:02:00,
2013-09-20 20:07:00,48.9,24.4,31.85,SW,225,0.0,2.0,38,0.00,,,0.00,meteohub,2013-09-21 02:07:00,
2013-09-20 20:12:00,48.4,23.4,31.85,South,180,0.0,2.0,37,0.00,,,0.00,meteohub,2013-09-21 02:12:00,
2013-09-20 20:17:00,48.4,23.4,31.85,NW,315,1.0,2.0,37,0.00,,,0.00,meteohub,2013-09-21 02:17:00,
2013-09-20 20:22:00,48.4,22.6,31.85,SW,225,2.0,2.0,36,0.00,,,0.00,meteohub,2013-09-21 02:22:00,
2013-09-20 20:27:00,48.2,23.7,31.86,South,180,2.0,2.0,38,0.00,,,0.00,meteohub,2013-09-21 02:27:00,
2013-09-20 20:32:00,47.8,23.5,31.86,SW,225,2.0,2.0,38,0.00,,,0.00,meteohub,2013-09-21 02:32:00,
2013-09-20 20:37:00,47.5,23.7,31.86,SW,225,2.0,2.0,39,0.00,,,0.00,meteohub,2013-09-21 02:37:00,
2013-09-20 20:42:00,46.6,21.7,31.86,SW,225,2.0,2.0,37,0.00,,,0.00,meteohub,2013-09-21 02:42:00,
2013-09-20 20:47:00,46.0,23.7,31.86,SW,225,2.0,2.0,41,0.00,,,0.00,meteohub,2013-09-21 02:47:00,
2013-09-20 20:52:00,45.7,23.9,31.86,SW,225,2.0,2.0,42,0.00,,,0.00,meteohub,2013-09-21 02:52:00,
2013-09-20 20:57:00,45.3,23.5,31.86,South,180,2.0,2.0,42,0.00,,,0.00,meteohub,2013-09-21 02:57:00,
2013-09-20 21:02:00,45.0,23.7,31.86,SW,225,2.0,2.0,43,0.00,,,0.00,meteohub,2013-09-21 03:02:00,
2013-09-20 21:07:00,44.8,23.7,31.86,West,270,2.0,2.0,43,0.00,,,0.00,meteohub,2013-09-21 03:07:00,
2013-09-20 21:12:00,44.8,24.3,31.86,SW,225,2.0,2.0,44,0.00,,,0.00,meteohub,2013-09-21 03:12:00,
2013-09-20 21:17:00,45.0,24.4,31.87,SW,225,2.0,2.0,44,0.00,,,0.00,meteohub,2013-09-21 03:17:00,
2013-09-20 21:22:00,45.0,25.0,31.86,South,180,2.0,2.0,45,0.00,,,0.00,meteohub,2013-09-21 03:22:00,
2013-09-20 21:27:00,45.0,25.3,31.87,South,180,2.0,2.0,46,0.00,,,0.00,meteohub,2013-09-21 03:27:00,
2013-09-20 21:32:00,44.8,26.2,31.87,NW,315,0.0,2.0,48,0.00,,,0.00,meteohub,2013-09-21 03:32:00,
2013-09-20 21:37:00,44.4,25.5,31.87,East,90,1.0,2.0,47,0.00,,,0.00,meteohub,2013-09-21 03:37:00,
2013-09-20 21:42:00,44.1,26.1,31.87,SE,135,2.0,2.0,49,0.00,,,0.00,meteohub,2013-09-21 03:42:00,
2013-09-20 21:47:00,43.7,25.7,31.87,West,270,2.0,2.0,49,0.00,,,0.00,meteohub,2013-09-21 03:47:00,
2013-09-20 21:52:00,43.2,25.3,31.87,West,270,1.0,2.0,49,0.00,,,0.00,meteohub,2013-09-21 03:52:00,
2013-09-20 21:57:00,43.0,26.1,31.87,SW,225,2.0,2.0,51,0.00,,,0.00,meteohub,2013-09-21 03:57:00,
2013-09-20 22:01:00,42.8,25.9,31.87,South,180,2.0,2.0,51,0.00,,,0.00,meteohub,2013-09-21 04:01:00,
2013-09-20 22:02:00,42.8,25.9,31.87,South,180,2.0,2.0,51,0.00,,,0.00,meteohub,2013-09-21 04:02:00,
2013-09-20 22:06:00,42.8,25.9,31.87,South,180,2.0,2.0,51,0.00,,,0.00,meteohub,2013-09-21 04:06:00,
2013-09-20 22:11:00,41.9,26.4,31.87,SW,225,2.0,2.0,54,0.00,,,0.00,meteohub,2013-09-21 04:11:00,
2013-09-20 22:16:00,41.7,26.2,31.87,SW,225,2.0,2.0,54,0.00,,,0.00,meteohub,2013-09-21 04:16:00,
2013-09-20 22:21:00,41.4,25.5,31.87,SW,225,2.0,2.0,53,0.00,,,0.00,meteohub,2013-09-21 04:21:00,
2013-09-20 22:26:00,41.4,26.8,31.87,West,270,2.0,2.0,56,0.00,,,0.00,meteohub,2013-09-21 04:26:00,
2013-09-20 22:31:00,40.8,27.1,31.87,SW,225,2.0,3.0,58,0.00,,,0.00,meteohub,2013-09-21 04:31:00,
2013-09-20 22:37:00,40.5,27.3,31.87,West,270,2.0,3.0,59,0.00,,,0.00,meteohub,2013-09-21 04:37:00,
2013-09-20 22:42:00,40.5,28.0,31.87,West,270,2.0,3.0,61,0.00,,,0.00,meteohub,2013-09-21 04:42:00,
2013-09-20 22:47:00,40.5,27.7,31.87,West,270,2.0,3.0,60,0.00,,,0.00,meteohub,2013-09-21 04:47:00,
2013-09-20 22:52:00,40.5,27.3,31.87,West,270,0.0,3.0,59,0.00,,,0.00,meteohub,2013-09-21 04:52:00,
2013-09-20 22:57:00,40.3,27.9,31.88,SW,225,2.0,2.0,61,0.00,,,0.00,meteohub,2013-09-21 04:57:00,
2013-09-20 23:02:00,39.9,28.4,31.88,SW,225,0.0,2.0,63,0.00,,,0.00,meteohub,2013-09-21 05:02:00,
2013-09-20 23:07:00,39.4,27.9,31.88,West,270,2.0,2.0,63,0.00,,,0.00,meteohub,2013-09-21 05:07:00,
2013-09-20 23:12:00,39.0,27.9,31.88,West,270,2.0,2.0,64,0.00,,,0.00,meteohub,2013-09-21 05:12:00,
2013-09-20 23:17:00,38.7,27.9,31.88,SW,225,1.0,2.0,65,0.00,,,0.00,meteohub,2013-09-21 05:17:00,
2013-09-20 23:22:00,38.5,27.7,31.88,SW,225,0.0,2.0,65,0.00,,,0.00,meteohub,2013-09-21 05:22:00,
2013-09-20 23:27:00,38.1,27.3,31.88,SW,225,2.0,2.0,65,0.00,,,0.00,meteohub,2013-09-21 05:27:00,
2013-09-20 23:32:00,37.6,27.0,31.88,SE,135,2.0,2.0,65,0.00,,,0.00,meteohub,2013-09-21 05:32:00,
2013-09-20 23:37:00,37.2,25.3,31.88,West,270,3.0,3.0,62,0.00,,,0.00,meteohub,2013-09-21 05:37:00,
2013-09-20 23:42:00,36.9,25.0,31.87,SW,225,1.0,3.0,62,0.00,,,0.00,meteohub,2013-09-21 05:42:00,
2013-09-20 23:47:00,36.7,25.0,31.88,SW,225,2.0,3.0,62,0.00,,,0.00,meteohub,2013-09-21 05:47:00,
2013-09-20 23:52:00,36.5,24.8,31.88,SW,225,2.0,3.0,62,0.00,,,0.00,meteohub,2013-09-21 05:52:00,
2013-09-20 23:57:00,36.3,25.0,31.88,SW,225,2.0,2.0,63,0.00,,,0.00,meteohub,2013-09-21 05:57:00,